Time;durP1;ratioP1;P1;durP2;ratioP2;P2;SDS_P1;SDS_P2;PMS_P1;PMS_P2;Temp;Humidity;BMP_temperature;BMP_pressure;BME280_temperature;BME280_humidity;BME280_pressure;Samples;Min_cycle;Max_cycle;Signal;HPM_P1;HPM_P2
2022/03/23 00:01:03;;;;;;;16.38;6.60;;;7.20;99.90;;;;;;5023780;28;20041;-73
2022/03/23 00:03:29;;;;;;;11.73;5.43;;;7.10;99.90;;;;;;5058117;28;20033;-73
2022/03/23 00:05:55;;;;;;;10.60;4.93;;;7.20;99.90;;;;;;5057416;28;20072;-73
2022/03/23 00:08:21;;;;;;;9.57;5.18;;;7.10;99.90;;;;;;5038974;28;20490;-74
2022/03/23 00:10:48;;;;;;;9.75;4.63;;;7.10;99.90;;;;;;5056029;28;20037;-73
2022/03/23 00:13:13;;;;;;;9.55;5.03;;;7.00;99.90;;;;;;5040147;28;20429;-73
2022/03/23 00:15:39;;;;;;;12.15;4.90;;;7.00;99.90;;;;;;5052792;28;20045;-73
2022/03/23 00:18:06;;;;;;;7.63;4.10;;;7.00;99.90;;;;;;5039600;28;20044;-73
2022/03/23 00:20:32;;;;;;;8.50;4.68;;;6.90;99.90;;;;;;5041378;28;20489;-73
2022/03/23 00:22:58;;;;;;;10.70;4.72;;;6.90;99.90;;;;;;5022786;28;20092;-73
2022/03/23 00:25:23;;;;;;;19.30;7.00;;;6.80;99.90;;;;;;5023880;28;20751;-73
2022/03/23 00:27:49;;;;;;;11.80;6.43;;;6.80;99.90;;;;;;5023609;28;20045;-74
2022/03/23 00:30:15;;;;;;;15.57;6.97;;;6.80;99.90;;;;;;5040238;28;20133;-73
2022/03/23 00:32:41;;;;;;;14.30;6.32;;;6.80;99.90;;;;;;5021457;28;20041;-73
2022/03/23 00:35:07;;;;;;;14.15;6.05;;;6.80;99.90;;;;;;5037688;28;20051;-73
2022/03/23 00:37:32;;;;;;;14.65;6.07;;;6.80;99.90;;;;;;5039911;28;20065;-73
2022/03/23 00:39:58;;;;;;;16.38;6.50;;;6.80;99.90;;;;;;5057794;28;20049;-73
2022/03/23 00:42:23;;;;;;;14.13;6.95;;;6.80;99.90;;;;;;5054655;28;20500;-74
2022/03/23 00:44:51;;;;;;;13.63;5.70;;;6.80;99.90;;;;;;5041702;28;20037;-73
2022/03/23 00:47:17;;;;;;;14.07;5.35;;;6.80;99.90;;;;;;5025588;28;20044;-73
2022/03/23 00:49:43;;;;;;;10.90;4.93;;;6.80;99.90;;;;;;5044659;28;20044;-73
2022/03/23 00:52:10;;;;;;;9.40;5.05;;;6.70;99.90;;;;;;5058342;28;20106;-74
2022/03/23 00:54:37;;;;;;;13.45;5.53;;;6.70;99.90;;;;;;5040163;28;20120;-73
2022/03/23 00:57:04;;;;;;;10.18;5.82;;;6.70;99.90;;;;;;5063017;28;20103;-73
2022/03/23 00:59:30;;;;;;;12.45;5.78;;;6.60;99.90;;;;;;5026560;28;20134;-73
2022/03/23 01:01:56;;;;;;;13.40;6.95;;;6.60;99.90;;;;;;5059706;28;20041;-73
2022/03/23 01:04:23;;;;;;;12.85;5.82;;;6.60;99.90;;;;;;5045227;28;20585;-73
2022/03/23 01:06:49;;;;;;;14.48;5.95;;;6.50;99.90;;;;;;5043507;28;20534;-73
2022/03/23 01:09:15;;;;;;;12.35;5.82;;;6.50;99.90;;;;;;5043204;28;20040;-73
2022/03/23 01:11:40;;;;;;;11.15;5.53;;;6.50;99.90;;;;;;5024141;28;20055;-73
2022/03/23 01:14:07;;;;;;;13.57;5.80;;;6.40;99.90;;;;;;5043311;28;20032;-73
2022/03/23 01:16:33;;;;;;;16.85;6.68;;;6.40;99.90;;;;;;5037067;28;20131;-73
2022/03/23 01:18:59;;;;;;;11.68;5.82;;;6.40;99.90;;;;;;5040981;28;20048;-73
2022/03/23 01:21:25;;;;;;;12.05;6.38;;;6.40;99.90;;;;;;5026725;28;20051;-73
2022/03/23 01:23:51;;;;;;;13.23;5.95;;;6.40;99.90;;;;;;5038886;28;20453;-73
2022/03/23 01:26:17;;;;;;;13.82;6.40;;;6.50;99.90;;;;;;5043822;28;20120;-73
2022/03/23 01:28:43;;;;;;;15.32;5.65;;;6.50;99.90;;;;;;5058372;28;20119;-73
2022/03/23 01:31:09;;;;;;;15.18;7.43;;;6.50;99.90;;;;;;5059415;28;20082;-73
2022/03/23 01:33:34;;;;;;;12.77;6.03;;;6.50;99.90;;;;;;5038835;28;20479;-73
2022/03/23 01:36:00;;;;;;;10.85;5.45;;;6.50;99.90;;;;;;5024719;28;20039;-74
2022/03/23 01:38:26;;;;;;;14.75;6.30;;;6.50;99.90;;;;;;5059525;28;20045;-73
2022/03/23 01:40:51;;;;;;;12.48;5.22;;;6.50;99.90;;;;;;5040722;28;20048;-74
2022/03/23 01:43:17;;;;;;;11.63;5.25;;;6.50;99.90;;;;;;5060558;28;20667;-73
2022/03/23 01:45:43;;;;;;;12.77;6.05;;;6.40;99.90;;;;;;5056690;28;20044;-73
2022/03/23 01:48:08;;;;;;;15.95;6.50;;;6.40;99.90;;;;;;5043442;28;20033;-73
2022/03/23 01:50:34;;;;;;;13.15;5.93;;;6.40;99.90;;;;;;5039340;28;20040;-73
2022/03/23 01:53:00;;;;;;;12.25;6.55;;;6.30;99.90;;;;;;5027522;28;20098;-73
2022/03/23 01:55:25;;;;;;;15.65;6.50;;;6.30;99.90;;;;;;5059934;28;20068;-73
2022/03/23 01:57:52;;;;;;;16.40;7.05;;;6.30;99.90;;;;;;5042281;28;20233;-73
2022/03/23 02:00:19;;;;;;;16.27;6.75;;;6.30;99.90;;;;;;5059948;28;20048;-73
2022/03/23 02:02:45;;;;;;;13.68;6.10;;;6.20;99.90;;;;;;5058178;28;20175;-73
2022/03/23 02:05:12;;;;;;;13.88;5.82;;;6.20;99.90;;;;;;5055603;28;20123;-73
2022/03/23 02:07:39;;;;;;;16.30;7.03;;;6.20;99.90;;;;;;5042345;28;20037;-73
2022/03/23 02:10:08;;;;;;;11.68;5.90;;;6.20;99.90;;;;;;5038544;28;20061;-73
2022/03/23 02:12:34;;;;;;;11.48;5.38;;;6.20;99.90;;;;;;5042007;28;20418;-73
2022/03/23 02:15:08;;;;;;;13.23;6.97;;;6.20;99.90;;;;;;5044044;28;20049;-73
2022/03/23 02:17:34;;;;;;;12.85;5.97;;;6.20;99.90;;;;;;5041878;28;20499;-73
2022/03/23 02:20:01;;;;;;;10.80;5.88;;;6.10;99.90;;;;;;5037882;28;20119;-73
2022/03/23 02:22:26;;;;;;;13.88;6.07;;;6.10;99.90;;;;;;5041465;28;20425;-73
2022/03/23 02:24:52;;;;;;;13.98;6.20;;;6.10;99.90;;;;;;5044352;28;20147;-73
2022/03/23 02:27:18;;;;;;;11.45;5.80;;;6.10;99.90;;;;;;5039422;28;20032;-73
2022/03/23 02:29:44;;;;;;;14.40;6.05;;;6.10;99.90;;;;;;5059005;28;20036;-73
2022/03/23 02:32:10;;;;;;;15.73;7.00;;;6.10;99.90;;;;;;5039244;28;20037;-73
2022/03/23 02:34:36;;;;;;;11.45;5.15;;;6.00;99.90;;;;;;5042735;28;20568;-73
2022/03/23 02:37:02;;;;;;;14.70;6.30;;;6.00;99.90;;;;;;5055582;28;20037;-73
2022/03/23 02:39:27;;;;;;;13.25;5.93;;;6.00;99.90;;;;;;5043294;28;20082;-73
2022/03/23 02:41:54;;;;;;;10.93;5.65;;;5.90;99.90;;;;;;5040549;28;20033;-73
2022/03/23 02:44:20;;;;;;;10.43;5.68;;;5.90;99.90;;;;;;5025142;28;20045;-73
2022/03/23 02:46:46;;;;;;;17.17;6.55;;;5.90;99.90;;;;;;5056885;28;20041;-73
2022/03/23 02:49:12;;;;;;;10.18;5.72;;;5.80;99.90;;;;;;5035316;28;20064;-73
2022/03/23 02:51:38;;;;;;;9.77;5.25;;;5.80;99.90;;;;;;5024205;28;20068;-74
2022/03/23 03:02:40;;;;;;;11.68;5.50;;;5.60;99.90;;;;;;5038067;28;20502;-73
2022/03/23 03:05:09;;;;;;;15.07;5.70;;;5.60;99.90;;;;;;5056474;28;20050;-73
2022/03/23 03:10:22;;;;;;;10.82;5.18;;;5.50;99.90;;;;;;5039329;28;20053;-73
2022/03/23 03:12:50;;;;;;;11.32;4.82;;;5.50;99.90;;;;;;5024594;28;20037;-73
2022/03/23 03:15:16;;;;;;;12.57;5.55;;;5.50;99.90;;;;;;5025435;28;20029;-73
2022/03/23 03:17:42;;;;;;;13.93;6.03;;;5.50;99.90;;;;;;5036764;28;20200;-73
2022/03/23 03:20:09;;;;;;;13.60;6.13;;;5.50;99.90;;;;;;5026237;28;20496;-73
2022/03/23 03:22:38;;;;;;;14.38;6.72;;;5.50;99.90;;;;;;5041029;28;20033;-74
2022/03/23 03:25:05;;;;;;;14.23;6.68;;;5.50;99.90;;;;;;5041567;28;20060;-73
2022/03/23 03:27:35;;;;;;;11.98;5.47;;;5.50;99.90;;;;;;5041314;28;20746;-73
2022/03/23 03:30:04;;;;;;;13.48;5.93;;;5.50;99.90;;;;;;5041534;28;20402;-73
2022/03/23 03:32:30;;;;;;;12.82;6.40;;;5.50;99.90;;;;;;5039764;28;20040;-73
2022/03/23 03:34:56;;;;;;;12.57;6.18;;;5.40;99.90;;;;;;5023212;28;20097;-73
2022/03/23 03:37:22;;;;;;;12.35;6.55;;;5.40;99.90;;;;;;5023404;28;20127;-73
2022/03/23 03:39:48;;;;;;;11.68;5.15;;;5.40;99.90;;;;;;5058227;28;20132;-73
2022/03/23 03:42:14;;;;;;;10.95;5.82;;;5.40;99.90;;;;;;5057234;28;20525;-73
2022/03/23 03:44:40;;;;;;;12.63;6.00;;;5.40;99.90;;;;;;5026383;28;20040;-73
2022/03/23 03:47:05;;;;;;;13.18;6.38;;;5.40;99.90;;;;;;5039229;28;20033;-73
2022/03/23 03:49:31;;;;;;;11.68;5.93;;;5.40;99.90;;;;;;5042078;28;20035;-73
2022/03/23 03:51:58;;;;;;;10.63;5.72;;;5.40;99.90;;;;;;5038258;28;20053;-73
2022/03/23 03:54:24;;;;;;;13.95;6.32;;;5.30;99.90;;;;;;5041455;28;20060;-73
2022/03/23 03:56:50;;;;;;;11.93;5.10;;;5.30;99.90;;;;;;5024367;28;20590;-73
2022/03/23 03:59:15;;;;;;;12.13;6.28;;;5.30;99.90;;;;;;5042242;28;20037;-73
2022/03/23 04:01:41;;;;;;;18.80;7.97;;;5.30;99.90;;;;;;5040859;28;20562;-73
2022/03/23 04:04:07;;;;;;;16.65;7.30;;;5.30;99.90;;;;;;5039787;28;20029;-73
2022/03/23 04:06:33;;;;;;;14.10;6.82;;;5.30;99.90;;;;;;5056934;28;20044;-73
2022/03/23 04:08:59;;;;;;;15.60;7.28;;;5.20;99.90;;;;;;5026153;28;20140;-73
2022/03/23 04:11:24;;;;;;;13.65;5.57;;;5.20;99.90;;;;;;5041490;28;20041;-73
2022/03/23 04:13:50;;;;;;;16.17;6.57;;;5.20;99.90;;;;;;5041304;28;20463;-73
2022/03/23 04:16:16;;;;;;;13.35;6.38;;;5.20;99.90;;;;;;5023068;28;20049;-73
2022/03/23 04:18:41;;;;;;;15.00;6.97;;;5.10;99.90;;;;;;5041966;28;20071;-73
2022/03/23 04:21:07;;;;;;;15.10;7.70;;;5.10;99.90;;;;;;5043778;28;20037;-73
2022/03/23 04:23:34;;;;;;;13.95;7.45;;;5.10;99.90;;;;;;5042990;28;20075;-73
2022/03/23 04:25:59;;;;;;;12.93;5.50;;;5.10;99.90;;;;;;5029745;28;20041;-73
2022/03/23 04:28:25;;;;;;;13.88;5.72;;;5.10;99.90;;;;;;5028314;28;20037;-73
2022/03/23 04:30:51;;;;;;;13.55;6.78;;;5.10;99.90;;;;;;5040652;28;20057;-73
2022/03/23 04:33:17;;;;;;;13.27;6.30;;;5.10;99.90;;;;;;5044376;28;20045;-73
2022/03/23 04:35:42;;;;;;;14.52;6.50;;;5.00;99.90;;;;;;5060062;28;20128;-73
2022/03/23 04:38:08;;;;;;;17.08;7.97;;;5.00;99.90;;;;;;5059893;28;20032;-73
2022/03/23 04:40:33;;;;;;;13.25;6.05;;;5.00;99.90;;;;;;5047517;28;20037;-73
2022/03/23 04:42:59;;;;;;;16.55;6.38;;;5.00;99.90;;;;;;5044241;28;20491;-73
2022/03/23 04:45:25;;;;;;;15.98;7.40;;;4.90;99.90;;;;;;5043876;28;20526;-73
2022/03/23 04:47:51;;;;;;;16.75;7.55;;;4.90;99.90;;;;;;5027077;28;20045;-73
2022/03/23 04:50:17;;;;;;;17.92;6.65;;;4.90;99.90;;;;;;5044466;28;20047;-73
2022/03/23 04:52:45;;;;;;;13.85;5.80;;;4.90;99.90;;;;;;5060845;28;20060;-73
2022/03/23 04:55:12;;;;;;;12.57;6.15;;;4.90;99.90;;;;;;5043948;28;20037;-73
2022/03/23 04:57:39;;;;;;;17.23;6.25;;;4.90;99.90;;;;;;5061297;28;20041;-73
2022/03/23 05:00:10;;;;;;;10.05;5.50;;;4.90;99.90;;;;;;5042005;28;20041;-73
2022/03/23 05:02:38;;;;;;;9.63;4.85;;;4.80;99.90;;;;;;5027150;28;20041;-73
2022/03/23 05:05:05;;;;;;;12.38;6.95;;;4.80;99.90;;;;;;5063084;28;20459;-73
2022/03/23 05:07:30;;;;;;;12.25;6.38;;;4.80;99.90;;;;;;5044132;28;20041;-73
2022/03/23 05:09:56;;;;;;;13.02;6.22;;;4.80;99.90;;;;;;5043230;28;20051;-73
2022/03/23 05:12:21;;;;;;;18.15;6.88;;;4.80;99.90;;;;;;5044484;28;20037;-73
2022/03/23 05:14:47;;;;;;;17.35;7.70;;;4.70;99.90;;;;;;5027508;28;20041;-74
2022/03/23 05:17:12;;;;;;;15.30;6.93;;;4.70;99.90;;;;;;5027415;28;20053;-73
2022/03/23 05:19:38;;;;;;;15.32;7.00;;;4.70;99.90;;;;;;5043107;28;20041;-73
2022/03/23 05:22:05;;;;;;;15.25;7.63;;;4.70;99.90;;;;;;5026255;28;20510;-73
2022/03/23 05:24:30;;;;;;;13.70;6.53;;;4.70;99.90;;;;;;5043725;28;20063;-73
2022/03/23 05:26:56;;;;;;;18.40;6.93;;;4.70;99.90;;;;;;5042586;28;20037;-73
2022/03/23 05:29:22;;;;;;;14.93;6.35;;;4.70;99.90;;;;;;5041115;28;20037;-73
2022/03/23 05:31:47;;;;;;;18.13;8.05;;;4.60;99.90;;;;;;5058051;28;20828;-73
2022/03/23 05:34:13;;;;;;;13.88;6.55;;;4.60;99.90;;;;;;5041293;28;20458;-73
2022/03/23 05:36:39;;;;;;;11.13;6.50;;;4.60;99.90;;;;;;5042131;28;20037;-73
2022/03/23 05:39:04;;;;;;;13.18;6.88;;;4.60;99.90;;;;;;5041959;28;20040;-73
2022/03/23 05:41:30;;;;;;;12.63;6.30;;;4.60;99.90;;;;;;5044487;28;20128;-73
2022/03/23 05:43:56;;;;;;;14.90;6.28;;;4.60;99.90;;;;;;5040424;28;20037;-73
2022/03/23 05:46:21;;;;;;;14.73;6.75;;;4.60;99.90;;;;;;5059510;28;20028;-73
2022/03/23 05:48:47;;;;;;;19.48;6.13;;;4.60;99.90;;;;;;5060606;28;20475;-73
2022/03/23 05:51:12;;;;;;;11.43;5.32;;;4.60;99.90;;;;;;5043140;28;20053;-73
2022/03/23 05:53:38;;;;;;;15.38;6.72;;;4.60;99.90;;;;;;5058936;28;20036;-73
2022/03/23 05:56:07;;;;;;;14.20;6.22;;;4.60;99.90;;;;;;5061055;28;20041;-73
2022/03/23 05:58:34;;;;;;;14.75;7.07;;;4.60;99.90;;;;;;5039921;28;20045;-73
2022/03/23 06:01:00;;;;;;;17.10;6.95;;;4.60;99.90;;;;;;5024563;28;20666;-73
2022/03/23 06:03:26;;;;;;;13.35;6.55;;;4.60;99.90;;;;;;5043375;28;20059;-73
2022/03/23 06:05:52;;;;;;;14.77;6.60;;;4.60;99.90;;;;;;5040209;28;20037;-73
2022/03/23 06:08:17;;;;;;;15.68;8.25;;;4.60;99.90;;;;;;5058133;28;20458;-73
2022/03/23 06:10:43;;;;;;;16.23;7.50;;;4.60;99.90;;;;;;5059852;28;20410;-74
2022/03/23 06:13:09;;;;;;;12.63;5.57;;;4.70;99.90;;;;;;5041638;28;20068;-73
2022/03/23 06:15:35;;;;;;;15.57;8.55;;;4.70;99.90;;;;;;5041660;28;20056;-73
2022/03/23 06:18:00;;;;;;;16.70;7.63;;;4.80;99.90;;;;;;5025672;28;20045;-73
2022/03/23 06:20:26;;;;;;;15.57;7.03;;;4.90;99.90;;;;;;5041934;28;20498;-73
2022/03/23 06:22:52;;;;;;;16.02;6.10;;;4.90;99.90;;;;;;5042411;28;20029;-73
2022/03/23 06:25:18;;;;;;;15.48;6.53;;;4.90;99.90;;;;;;5025877;28;20047;-73
2022/03/23 06:27:43;;;;;;;12.98;6.10;;;4.90;99.90;;;;;;5039741;28;20636;-74
2022/03/23 06:30:10;;;;;;;13.43;6.85;;;4.90;99.90;;;;;;5041977;28;20036;-73
2022/03/23 06:32:35;;;;;;;19.50;8.75;;;4.90;99.90;;;;;;5024698;28;20036;-74
2022/03/23 06:35:01;;;;;;;18.92;8.10;;;5.00;99.90;;;;;;5040967;28;20090;-73
2022/03/23 06:37:27;;;;;;;15.18;7.05;;;5.00;99.90;;;;;;5042752;28;20666;-73
2022/03/23 06:39:53;;;;;;;21.13;8.43;;;5.10;99.90;;;;;;5024317;28;20037;-73
2022/03/23 06:42:19;;;;;;;14.32;7.78;;;5.10;99.90;;;;;;5041270;28;20048;-73
2022/03/23 06:44:45;;;;;;;18.05;7.00;;;5.10;99.90;;;;;;5055686;28;20087;-73
2022/03/23 06:47:10;;;;;;;17.85;7.65;;;5.10;99.90;;;;;;5043640;28;20037;-73
2022/03/23 06:49:36;;;;;;;22.25;8.77;;;5.20;99.90;;;;;;5039429;28;20406;-73
2022/03/23 06:52:02;;;;;;;17.73;7.38;;;5.30;99.90;;;;;;5042465;28;20144;-73
2022/03/23 06:54:27;;;;;;;20.33;9.02;;;5.30;99.90;;;;;;5044349;28;20075;-73
2022/03/23 06:56:54;;;;;;;17.58;8.18;;;5.30;99.90;;;;;;5058820;28;20554;-74
2022/03/23 06:59:19;;;;;;;16.90;8.40;;;5.40;99.90;;;;;;5038789;28;20041;-73
2022/03/23 07:01:45;;;;;;;19.27;9.35;;;5.50;99.90;;;;;;5039297;28;20112;-73
2022/03/23 07:04:11;;;;;;;18.95;8.85;;;5.50;99.90;;;;;;5042247;28;20286;-73
2022/03/23 07:06:36;;;;;;;19.50;9.30;;;5.60;99.90;;;;;;5024073;28;20716;-73
2022/03/23 07:11:46;;;;;;;20.13;9.40;;;5.70;99.90;;;;;;5038725;28;20112;-73
2022/03/23 07:14:12;;;;;;;17.20;8.73;;;5.80;99.90;;;;;;5020963;28;20135;-73
2022/03/23 07:16:38;;;;;;;17.85;8.45;;;5.90;99.90;;;;;;5039537;28;20052;-73
2022/03/23 07:19:04;;;;;;;21.30;10.35;;;6.00;99.90;;;;;;5024344;28;20040;-73
2022/03/23 07:21:31;;;;;;;18.50;9.18;;;6.10;99.90;;;;;;5035611;28;20045;-73
2022/03/23 07:23:56;;;;;;;22.85;9.75;;;6.10;99.90;;;;;;5037532;28;20044;-73
2022/03/23 07:26:22;;;;;;;21.80;9.50;;;6.20;99.90;;;;;;5035716;28;20410;-73
2022/03/23 07:28:48;;;;;;;18.50;9.38;;;6.30;99.90;;;;;;5040109;28;20646;-73
2022/03/23 07:31:14;;;;;;;18.92;9.25;;;6.40;99.90;;;;;;5035794;28;20518;-73
2022/03/23 07:33:39;;;;;;;24.33;10.05;;;6.40;99.90;;;;;;5037184;28;20045;-73
2022/03/23 07:36:05;;;;;;;19.90;9.82;;;6.60;99.90;;;;;;5021870;28;20067;-72
2022/03/23 07:38:31;;;;;;;17.88;8.45;;;6.60;99.90;;;;;;5051330;28;20041;-73
2022/03/23 07:40:56;;;;;;;17.90;8.90;;;6.70;99.90;;;;;;5040254;28;20490;-73
2022/03/23 07:43:22;;;;;;;18.50;8.73;;;6.80;99.90;;;;;;5055209;28;20036;-73
2022/03/23 07:45:48;;;;;;;16.80;9.38;;;6.90;99.90;;;;;;5038710;28;20049;-73
2022/03/23 07:48:15;;;;;;;15.45;8.20;;;7.00;99.90;;;;;;5038663;28;20086;-73
2022/03/23 07:50:41;;;;;;;18.45;8.18;;;7.10;99.90;;;;;;5055058;28;20067;-73
2022/03/23 07:53:06;;;;;;;18.65;8.98;;;7.20;99.90;;;;;;5040136;28;20037;-74
2022/03/23 07:55:32;;;;;;;18.25;9.40;;;7.20;99.90;;;;;;5060634;28;20041;-73
2022/03/23 07:57:57;;;;;;;16.65;8.27;;;7.30;99.90;;;;;;5047242;28;20406;-73
2022/03/23 08:00:23;;;;;;;15.82;7.35;;;7.40;99.90;;;;;;5043212;28;20037;-73
2022/03/23 08:02:50;;;;;;;16.90;8.85;;;7.50;99.90;;;;;;5042625;28;20403;-73
2022/03/23 08:05:16;;;;;;;21.90;8.65;;;7.60;99.90;;;;;;5038623;28;20049;-74
2022/03/23 08:07:42;;;;;;;18.80;8.90;;;7.70;99.90;;;;;;5044249;28;20048;-74
2022/03/23 08:10:08;;;;;;;15.98;8.07;;;7.80;99.90;;;;;;5039576;28;20541;-73
2022/03/23 08:12:34;;;;;;;19.52;9.10;;;7.90;99.90;;;;;;5054844;28;20038;-73
2022/03/23 08:15:00;;;;;;;20.77;8.63;;;7.90;99.90;;;;;;5041408;28;20043;-73
2022/03/23 08:17:25;;;;;;;22.92;9.35;;;8.00;99.90;;;;;;5024458;28;20057;-73
2022/03/23 08:20:32;;;;;;;17.20;8.63;;;8.10;99.90;;;;;;5057010;28;20112;-73
2022/03/23 08:22:37;;;;;;;14.63;7.60;;;8.10;99.90;;;;;;5042530;28;20332;-73
2022/03/23 08:25:03;;;;;;;16.30;7.72;;;8.20;99.90;;;;;;5041829;28;20091;-73
2022/03/23 08:27:29;;;;;;;15.73;7.50;;;8.30;99.90;;;;;;5061100;28;20656;-73
2022/03/23 08:29:54;;;;;;;19.52;7.60;;;8.40;99.90;;;;;;5042856;28;20044;-73
2022/03/23 08:32:22;;;;;;;19.55;8.77;;;8.50;99.90;;;;;;5044461;28;20114;-73
2022/03/23 08:34:49;;;;;;;15.73;7.53;;;8.60;99.90;;;;;;5059849;28;20053;-73
2022/03/23 08:37:14;;;;;;;12.88;6.63;;;8.60;99.90;;;;;;5043702;28;20245;-73
2022/03/23 08:39:40;;;;;;;16.60;7.53;;;8.70;99.90;;;;;;5042537;28;20048;-72
2022/03/23 08:42:06;;;;;;;15.80;6.80;;;8.80;99.90;;;;;;5042673;28;20033;-73
2022/03/23 08:44:31;;;;;;;11.13;5.82;;;8.90;99.90;;;;;;5025546;28;20880;-73
2022/03/23 08:46:57;;;;;;;13.23;5.78;;;8.90;99.90;;;;;;5040769;28;20043;-73
2022/03/23 08:49:22;;;;;;;13.85;6.20;;;9.10;99.90;;;;;;5033344;28;20493;-73
2022/03/23 08:51:48;;;;;;;14.20;6.57;;;9.10;99.90;;;;;;5043078;28;20052;-73
2022/03/23 08:54:14;;;;;;;11.82;5.47;;;9.30;99.90;;;;;;5057623;28;20423;-73
2022/03/23 08:56:39;;;;;;;13.27;5.90;;;9.30;99.90;;;;;;5058337;28;20083;-73
2022/03/23 08:59:05;;;;;;;10.32;6.00;;;9.40;99.60;;;;;;5023449;28;20039;-73
2022/03/23 09:01:30;;;;;;;11.52;5.47;;;9.40;99.30;;;;;;5054206;28;20560;-73
2022/03/23 09:04:00;;;;;;;9.40;5.65;;;9.50;98.80;;;;;;5033365;28;20127;-73
2022/03/23 09:06:26;;;;;;;9.88;5.18;;;9.60;98.30;;;;;;5041129;28;20033;-73
2022/03/23 09:08:52;;;;;;;11.93;5.60;;;9.60;97.30;;;;;;5041810;28;21368;-73
2022/03/23 09:11:17;;;;;;;8.82;4.88;;;9.70;96.20;;;;;;5026213;28;20043;-73
2022/03/23 09:13:44;;;;;;;9.57;5.07;;;9.80;95.50;;;;;;5039577;28;20410;-73
2022/03/23 09:16:10;;;;;;;11.70;5.07;;;9.90;94.70;;;;;;5038009;28;20045;-73
2022/03/23 09:18:36;;;;;;;10.93;5.65;;;10.10;94.50;;;;;;5038335;28;20048;-73
2022/03/23 09:21:01;;;;;;;9.05;4.95;;;10.10;94.00;;;;;;5039978;28;20045;-73
2022/03/23 09:23:27;;;;;;;7.20;4.22;;;10.20;93.10;;;;;;5039945;28;20033;-72
2022/03/23 09:25:53;;;;;;;8.10;4.82;;;10.20;93.00;;;;;;5038933;28;20029;-73
2022/03/23 09:28:19;;;;;;;7.20;4.55;;;10.30;92.30;;;;;;5027289;28;20028;-73
2022/03/23 09:30:45;;;;;;;8.57;5.10;;;10.40;91.50;;;;;;5057235;28;20131;-73
2022/03/23 09:33:10;;;;;;;10.05;5.57;;;10.40;90.50;;;;;;5040428;28;20072;-73
2022/03/23 09:35:36;;;;;;;9.95;4.75;;;10.50;89.30;;;;;;5042112;28;20084;-73
2022/03/23 09:38:03;;;;;;;7.50;4.25;;;10.60;88.20;;;;;;5038857;28;20034;-73
2022/03/23 09:40:31;;;;;;;8.07;3.97;;;10.80;85.50;;;;;;5041494;28;20049;-74
2022/03/23 09:42:59;;;;;;;12.15;5.07;;;10.90;84.60;;;;;;5042229;28;20074;-73
2022/03/23 09:48:00;;;;;;;8.77;4.22;;;11.00;83.50;;;;;;5036237;28;20279;-72
2022/03/23 09:50:28;;;;;;;7.90;4.80;;;11.10;82.70;;;;;;5061740;28;20052;-73
2022/03/23 09:52:54;;;;;;;7.50;4.32;;;11.10;81.60;;;;;;5024433;28;21447;-73
2022/03/23 09:55:20;;;;;;;9.02;4.70;;;11.20;80.20;;;;;;5019062;28;20033;-72
2022/03/23 09:57:46;;;;;;;8.70;3.85;;;11.20;79.50;;;;;;5037450;28;20060;-72
2022/03/23 10:00:13;;;;;;;8.27;5.18;;;11.30;78.10;;;;;;5056958;28;20048;-72
2022/03/23 10:02:39;;;;;;;6.95;4.22;;;11.30;77.10;;;;;;5039584;28;20313;-73
2022/03/23 10:05:45;;;;;;;9.30;4.95;;;11.40;77.90;;;;;;5052804;28;20278;-72
2022/03/23 10:08:42;;;;;;;8.57;4.43;;;11.40;73.50;;;;;;5035212;28;20124;-72
2022/03/23 10:11:45;;;;;;;8.65;4.07;;;11.40;75.20;;;;;;5051759;28;20071;-72
2022/03/23 10:15:15;;;;;;;10.52;4.47;;;11.50;73.40;;;;;;5040999;28;20045;-72
2022/03/23 10:18:02;;;;;;;7.57;4.55;;;11.50;72.60;;;;;;4977505;28;20563;-72
2022/03/23 10:20:28;;;;;;;8.93;5.43;;;11.60;72.50;;;;;;4988303;28;20089;-73
2022/03/23 10:22:54;;;;;;;8.45;4.25;;;11.60;77.20;;;;;;5016312;28;20466;-73
2022/03/23 10:25:26;;;;;;;8.98;4.75;;;11.70;77.70;;;;;;5032594;28;20045;-73
2022/03/23 10:27:54;;;;;;;10.10;4.97;;;11.70;74.70;;;;;;5024539;28;20135;-73
2022/03/23 10:30:34;;;;;;;7.28;4.55;;;11.80;74.30;;;;;;5036318;28;20217;-73
2022/03/23 10:33:00;;;;;;;7.18;4.95;;;11.80;70.30;;;;;;5026341;28;20064;-73
2022/03/23 10:35:36;;;;;;;7.93;4.43;;;11.90;72.80;;;;;;5056059;28;20178;-73
2022/03/23 10:38:23;;;;;;;11.05;5.43;;;11.90;71.00;;;;;;5038869;28;20083;-73
2022/03/23 10:40:51;;;;;;;7.22;4.85;;;11.90;67.70;;;;;;5056638;28;20514;-73
2022/03/23 10:43:22;;;;;;;7.45;4.15;;;11.90;71.80;;;;;;5021724;28;20042;-73
2022/03/23 10:45:48;;;;;;;8.45;4.75;;;11.90;72.30;;;;;;5034812;28;20064;-73
2022/03/23 10:48:16;;;;;;;7.47;3.88;;;12.00;70.90;;;;;;5020260;28;20391;-72
2022/03/23 10:50:56;;;;;;;7.20;3.72;;;12.00;70.30;;;;;;5039814;28;20135;-72
2022/03/23 10:53:31;;;;;;;8.27;4.20;;;12.10;68.30;;;;;;5048548;28;20041;-73
2022/03/23 10:55:57;;;;;;;8.38;4.35;;;12.10;68.70;;;;;;5036877;28;20068;-73
2022/03/23 10:58:25;;;;;;;8.75;4.65;;;12.20;69.50;;;;;;5035544;28;20130;-73
2022/03/23 11:00:54;;;;;;;8.02;4.57;;;12.20;69.90;;;;;;5033240;28;20272;-73
2022/03/23 11:03:34;;;;;;;9.38;5.18;;;12.20;70.00;;;;;;5037864;28;20561;-73
2022/03/23 11:06:00;;;;;;;9.23;4.93;;;12.20;67.80;;;;;;5036000;28;20620;-73
2022/03/23 11:08:26;;;;;;;8.60;4.53;;;12.30;68.80;;;;;;5033293;28;20046;-72
2022/03/23 11:16:49;;;;;;;8.95;3.97;;;12.40;67.80;;;;;;5037892;28;20072;-73
2022/03/23 11:19:26;;;;;;;8.05;3.97;;;12.60;66.60;;;;;;5054566;28;20063;-73
2022/03/23 11:22:05;;;;;;;8.30;3.83;;;12.60;66.90;;;;;;5039546;28;20418;-73
2022/03/23 11:24:40;;;;;;;7.78;3.90;;;12.70;64.40;;;;;;5039628;28;20060;-73
2022/03/23 11:27:08;;;;;;;6.70;3.50;;;12.80;65.10;;;;;;5023409;28;20152;-73
2022/03/23 11:29:35;;;;;;;7.35;3.67;;;12.90;65.10;;;;;;5025157;28;20036;-73
2022/03/23 11:32:10;;;;;;;8.60;3.65;;;12.90;64.80;;;;;;5053471;28;20041;-73
2022/03/23 11:34:37;;;;;;;6.40;3.95;;;12.90;63.10;;;;;;5039496;28;20228;-73
2022/03/23 11:37:05;;;;;;;7.50;3.40;;;12.90;63.90;;;;;;5039340;28;20762;-72
2022/03/23 11:39:31;;;;;;;7.28;4.05;;;13.00;64.00;;;;;;5041600;28;20037;-73
2022/03/23 11:41:58;;;;;;;7.10;2.95;;;13.00;63.60;;;;;;5040454;28;20449;-73
2022/03/23 11:44:25;;;;;;;7.63;3.55;;;13.00;63.10;;;;;;5023931;28;20033;-73
2022/03/23 11:46:56;;;;;;;6.43;3.22;;;13.10;61.50;;;;;;5038038;28;20269;-73
2022/03/23 11:49:40;;;;;;;7.80;3.55;;;13.20;62.20;;;;;;5043532;28;20204;-73
2022/03/23 11:52:29;;;;;;;7.97;3.50;;;13.20;62.50;;;;;;5054284;28;20082;-73
2022/03/23 11:58:15;;;;;;;6.55;3.35;;;13.20;61.90;;;;;;5038866;28;20041;-72
2022/03/23 12:00:45;;;;;;;6.32;3.05;;;13.20;61.20;;;;;;5055036;28;20053;-73
2022/03/23 12:03:10;;;;;;;6.10;2.75;;;13.30;62.10;;;;;;5031506;28;20037;-73
2022/03/23 12:05:48;;;;;;;5.57;2.67;;;13.30;62.00;;;;;;5038907;28;20095;-73
2022/03/23 12:08:50;;;;;;;9.63;2.95;;;13.30;61.50;;;;;;5020981;28;20368;-73
2022/03/23 12:11:37;;;;;;;5.07;2.53;;;13.40;59.40;;;;;;5039981;28;20178;-73
2022/03/23 12:14:05;;;;;;;5.63;2.33;;;13.40;60.10;;;;;;5037832;28;20044;-72
2022/03/23 12:16:46;;;;;;;6.10;2.90;;;13.40;60.90;;;;;;5039780;28;20056;-73
2022/03/23 12:19:16;;;;;;;5.78;2.70;;;13.40;59.20;;;;;;5015402;28;20399;-73
2022/03/23 12:22:35;;;;;;;6.07;2.83;;;13.50;61.10;;;;;;5032983;28;20132;-73
2022/03/23 12:25:09;;;;;;;6.32;2.22;;;13.50;57.80;;;;;;5012276;28;20491;-73
2022/03/23 12:27:55;;;;;;;6.28;2.70;;;13.50;60.60;;;;;;5010140;28;20462;-73
2022/03/23 12:30:24;;;;;;;6.43;2.63;;;13.60;59.30;;;;;;5023271;28;20511;-73
2022/03/23 12:32:50;;;;;;;6.07;3.38;;;13.60;60.90;;;;;;5035840;28;20041;-73
2022/03/23 12:35:27;;;;;;;8.32;2.65;;;13.60;61.00;;;;;;5037592;28;20068;-72
2022/03/23 12:37:53;;;;;;;5.57;2.83;;;13.60;60.60;;;;;;5037240;28;20540;-73
2022/03/23 12:40:19;;;;;;;5.72;2.97;;;13.70;59.90;;;;;;5042604;28;20430;-73
2022/03/23 12:42:46;;;;;;;4.80;2.70;;;13.70;59.90;;;;;;5045218;28;20032;-72
2022/03/23 12:45:22;;;;;;;5.25;2.70;;;13.80;59.70;;;;;;5057059;28;20073;-73
2022/03/23 12:47:58;;;;;;;4.97;2.40;;;13.80;60.00;;;;;;5042178;28;20116;-72
2022/03/23 12:59:22;;;;;;;3.33;1.88;;;14.10;57.10;;;;;;5043562;28;20041;-73
2022/03/23 13:02:05;;;;;;;4.95;2.20;;;14.20;57.30;;;;;;5057575;28;20079;-73
2022/03/23 13:04:42;;;;;;;3.75;2.15;;;14.20;58.20;;;;;;5057931;28;20045;-73
2022/03/23 13:07:30;;;;;;;4.97;2.10;;;14.30;56.90;;;;;;5026196;28;20041;-73
2022/03/23 13:10:13;;;;;;;8.27;2.53;;;14.40;56.20;;;;;;5042315;28;20055;-73
2022/03/23 13:12:39;;;;;;;5.78;2.28;;;14.40;56.80;;;;;;5060936;28;20044;-73
2022/03/23 13:15:11;;;;;;;5.90;2.35;;;14.30;57.80;;;;;;5029056;28;20036;-73
2022/03/23 13:17:40;;;;;;;4.50;2.03;;;14.30;58.00;;;;;;5026262;28;20052;-73
2022/03/23 13:20:08;;;;;;;4.57;2.13;;;14.30;58.50;;;;;;5038864;28;20084;-73
2022/03/23 13:22:39;;;;;;;4.93;2.10;;;14.30;58.20;;;;;;5026900;28;20516;-73
2022/03/23 13:25:08;;;;;;;4.22;1.85;;;14.30;57.60;;;;;;5026722;28;20056;-73
2022/03/23 13:27:37;;;;;;;8.32;1.60;;;14.30;57.80;;;;;;5059646;28;20078;-73